Latest Weather Observations for Batchelor

IDD60801

Issued at 9:51 am CST Monday 16 September 2019 (issued every 10 minutes, with the page automatically refreshed every 10 minutes)

About weather observations | Map of weather stations | Latest weather observations for NT | Other Formats
Station Details ID: 014272 Name: BATCHELOR AIRPORT Lat: -13.05 Lon: 131.03 Height: 104.0 m
Data from the previous 72 hours. | See also: Recent months at Batchelor
Date/Time
CST
Temp
°C
App
Temp
°C
Dew
Point
°C
Rel
Hum
%
Delta-T
°C
Wind Press
QNH
hPa
Press
MSL
hPa
Rain since
9am
mm
Dir  Spd
km/h
Gust
km/h
Spd
kts
Gust
kts
16/09:30am 27.1 28.4 17.6 56 6.0 ESE 7 13 4 7 1017.0 1016.3 0.0
16/09:00am 25.5 27.4 17.7 62 4.9 ENE 4 7 2 4 1016.9 1016.2 0.0
16/08:30am 24.3 26.7 18.0 68 4.0 SE 2 4 1 2 1016.9 1016.2 0.0
16/08:00am 21.8 24.7 18.2 80 2.3 CALM 0 0 0 0 1017.0 1016.3 0.0
16/07:30am 18.9 21.2 16.7 87 1.3 CALM 0 0 0 0 1016.7 1016.0 0.0
16/07:00am 17.8 19.6 15.6 87 1.3 CALM 0 0 0 0 1016.6 1015.9 0.0
16/06:30am 17.9 19.5 15.0 83 1.7 CALM 0 0 0 0 1016.3 1015.6 0.0
16/06:00am 18.2 19.9 15.1 82 1.8 CALM 0 0 0 0 1015.9 1015.2 0.0
16/05:30am 18.5 20.3 15.6 83 1.7 CALM 0 0 0 0 1015.9 1015.2 0.0
16/05:00am 19.0 21.0 16.0 83 1.8 CALM 0 0 0 0 1015.7 1015.0 0.0
16/04:30am 19.5 21.7 16.5 83 1.8 CALM 0 0 0 0 1015.6 1014.9 0.0
16/04:00am 19.4 21.4 15.9 80 2.1 CALM 0 0 0 0 1015.3 1014.6 0.0
16/03:30am 19.6 21.3 15.3 76 2.5 CALM 0 0 0 0 1015.4 1014.7 0.0
16/03:00am 20.2 22.4 16.4 79 2.3 CALM 0 0 0 0 1015.7 1015.0 0.0
16/02:30am 20.8 23.0 16.4 76 2.7 CALM 0 0 0 0 1015.9 1015.2 0.0
16/02:00am 21.2 21.2 17.2 78 2.5 SSE 13 19 7 10 1016.2 1015.5 0.0
16/01:30am 19.9 21.3 15.3 75 2.7 WNW 2 4 1 2 1015.6 1014.9 0.0
16/01:00am 20.4 21.9 15.6 74 2.9 WNW 2 6 1 3 1015.8 1015.1 0.0
16/12:30am 20.6 22.0 15.4 72 3.1 WNW 2 4 1 2 1015.6 1014.9 0.0
16/12:00am 20.8 22.4 14.9 69 3.5 CALM 0 0 0 0 1015.5 1014.8 0.0
 
Date/Time
CST
Temp
°C
App
Temp
°C
Dew
Point
°C
Rel
Hum
%
Delta-T
°C
Wind Press
QNH
hPa
Press
MSL
hPa
Rain since
9am
mm
Dir  Spd
km/h
Gust
km/h
Spd
kts
Gust
kts
15/11:30pm 21.4 22.4 14.3 64 4.2 WNW 2 6 1 3 1015.7 1015.0 0.0
15/11:00pm 21.9 23.5 14.8 64 4.2 CALM 0 0 0 0 1015.8 1015.1 0.0
15/10:30pm 22.7 24.3 14.8 61 4.7 CALM 0 2 0 1 1015.8 1015.1 0.0
15/10:00pm 23.4 24.6 14.9 59 5.1 WNW 2 4 1 2 1015.6 1014.9 0.0
15/09:30pm 24.4 24.9 15.1 56 5.6 NNW 6 9 3 5 1015.5 1014.8 0.0
15/09:00pm 25.0 25.2 14.8 53 6.1 NNW 7 13 4 7 1015.2 1014.5 0.0
15/08:30pm 25.6 25.7 14.4 50 6.7 WNW 7 15 4 8 1014.9 1014.2 0.0
15/08:00pm 26.3 25.2 14.4 48 7.1 NNE 13 17 7 9 1014.1 1013.4 0.0
15/07:30pm 27.2 26.0 13.9 44 7.9 NNE 13 24 7 13 1013.8 1013.1 0.0
15/07:00pm 28.1 26.6 13.2 39 8.8 N 13 19 7 10 1013.5 1012.8 0.0
15/06:30pm 30.4 28.3 9.8 28 11.7 ENE 11 20 6 11 1012.9 1012.2 0.0
15/06:00pm 32.3 29.4 6.5 20 14.0 E 11 17 6 9 1012.5 1011.9 0.0
15/05:30pm 33.1 29.4 6.4 19 14.5 E 15 26 8 14 1012.2 1011.6 0.0
15/05:00pm 33.3 29.5 5.8 18 14.8 E 15 24 8 13 1012.4 1011.8 0.0
15/04:30pm 33.3 29.3 6.6 19 14.6 ENE 17 26 9 14 1012.1 1011.5 0.0
15/04:00pm 33.9 30.4 7.0 19 14.8 E 15 26 8 14 1012.1 1011.5 0.0
15/03:30pm 34.2 30.5 8.0 20 14.7 E 17 30 9 16 1012.1 1011.5 0.0
15/03:00pm 33.2 28.8 6.5 19 14.6 E 19 35 10 19 1012.3 1011.7 0.0
15/02:30pm 33.3 29.1 7.3 20 14.4 E 19 35 10 19 1012.5 1011.9 0.0
15/02:00pm 33.0 29.5 7.1 20 14.2 ENE 15 32 8 17 1013.0 1012.3 0.0
15/01:30pm 33.0 28.4 6.3 19 14.5 E 20 39 11 21 1013.4 1012.7 0.0
15/01:00pm 33.2 28.2 6.5 19 14.6 ESE 22 35 12 19 1013.9 1013.2 0.0
15/12:30pm 32.5 25.9 4.3 17 14.8 ESE 28 43 15 23 1014.3 1013.6 0.0
15/12:03pm 31.9 25.1 3.0 16 14.8 SE 28 50 15 27 1014.5 1013.8 0.0
15/12:00pm 32.5 25.8 3.5 16 15.0 SE 28 44 15 24 1014.8 1014.1 0.0
15/11:41am 32.0 25.2 3.1 16 14.8 ESE 28 48 15 26 1015.0 1014.3 0.0
15/11:30am 31.6 24.6 1.8 15 14.9 ESE 28 39 15 21 1015.3 1014.6 0.0
15/11:12am 30.7 23.2 3.7 18 13.9 ESE 32 50 17 27 1015.5 1014.8 0.0
15/11:00am 30.3 22.7 4.1 19 13.5 SE 33 50 18 27 1015.9 1015.2 0.0
15/10:30am 29.8 24.1 6.5 23 12.5 ESE 26 35 14 19 1016.5 1015.8 0.0
15/10:00am 28.5 23.4 7.7 27 11.3 ESE 24 37 13 20 1017.1 1016.4 0.0
15/09:30am 27.5 23.1 7.4 28 10.8 ESE 20 37 11 20 1017.4 1016.7 0.0
15/09:00am 26.1 23.8 12.9 44 7.7 SE 17 24 9 13 1017.6 1016.9 0.0
15/08:30am 25.1 26.5 17.8 64 4.6 SSE 7 13 4 7 1017.6 1016.9 0.0
15/08:00am 21.9 24.8 18.1 79 2.4 CALM 0 0 0 0 1017.4 1016.7 0.0
15/07:30am 19.1 21.2 16.3 84 1.7 CALM 0 0 0 0 1017.1 1016.4 0.0
15/07:00am 16.6 18.1 14.6 88 1.2 CALM 0 0 0 0 1016.9 1016.2 0.0
15/06:30am 16.5 17.9 14.3 87 1.3 CALM 0 0 0 0 1016.7 1016.0 0.0
15/06:00am 16.7 18.0 14.0 84 1.5 CALM 0 0 0 0 1016.5 1015.8 0.0
15/05:30am 17.1 18.2 13.6 80 2.0 CALM 0 0 0 0 1016.3 1015.6 0.0
15/05:00am 17.9 19.2 14.0 78 2.2 CALM 0 0 0 0 1016.2 1015.5 0.0
15/04:30am 18.4 19.7 14.1 76 2.5 CALM 0 0 0 0 1016.0 1015.3 0.0
15/04:00am 18.8 20.2 14.5 76 2.5 CALM 0 0 0 0 1015.7 1015.0 0.0
15/03:30am 18.9 20.5 15.0 78 2.3 CALM 0 0 0 0 1015.7 1015.0 0.0
15/03:00am 18.6 19.9 14.1 75 2.6 CALM 0 0 0 0 1015.6 1014.9 0.0
15/02:30am 19.2 20.7 14.7 75 2.6 CALM 0 0 0 0 1015.6 1014.9 0.0
15/02:00am 19.9 21.3 14.3 70 3.3 CALM 0 0 0 0 1015.8 1015.1 0.0
15/01:30am 20.1 20.7 14.2 69 3.4 SSW 4 4 2 2 1016.2 1015.5 0.0
15/01:00am 20.5 21.2 14.6 69 3.5 SSW 4 6 2 3 1016.4 1015.7 0.0
15/12:30am 20.4 20.7 13.4 64 4.0 SSW 4 6 2 3 1016.4 1015.7 0.0
15/12:00am 21.0 21.0 13.7 63 4.2 SSW 6 11 3 6 1016.5 1015.8 0.0
 
Date/Time
CST
Temp
°C
App
Temp
°C
Dew
Point
°C
Rel
Hum
%
Delta-T
°C
Wind Press
QNH
hPa
Press
MSL
hPa
Rain since
9am
mm
Dir  Spd
km/h
Gust
km/h
Spd
kts
Gust
kts
14/11:30pm 21.9 22.9 13.3 58 5.0 CALM 0 0 0 0 1016.2 1015.5 0.0
14/11:00pm 23.1 23.2 12.7 52 6.0 SW 4 7 2 4 1016.2 1015.5 0.0
14/10:30pm 23.1 23.8 12.1 50 6.3 CALM 0 0 0 0 1016.2 1015.5 0.0
14/10:00pm 24.4 24.5 11.4 44 7.4 WSW 2 4 1 2 1016.2 1015.5 0.0
14/09:30pm 25.1 24.3 11.6 42 7.7 WSW 7 13 4 7 1015.8 1015.1 0.0
14/09:00pm 26.1 25.7 11.1 39 8.5 NNE 4 7 2 4 1015.2 1014.5 0.0
14/08:30pm 26.9 25.3 10.2 35 9.4 NNE 9 15 5 8 1014.9 1014.2 0.0
14/08:00pm 27.8 26.0 9.6 32 10.2 NNE 9 15 5 8 1014.7 1014.0 0.0
14/07:30pm 28.5 26.9 8.7 29 10.9 ENE 7 17 4 9 1014.2 1013.5 0.0
14/07:00pm 28.4 26.3 5.9 24 11.8 E 6 7 3 4 1013.7 1013.0 0.0
14/06:30pm 31.2 28.9 5.6 20 13.6 E 7 13 4 7 1013.4 1012.7 0.0
14/06:00pm 32.4 28.8 5.1 18 14.5 ESE 13 22 7 12 1013.2 1012.5 0.0
14/05:30pm 33.1 29.3 3.9 16 15.3 ESE 13 19 7 10 1013.0 1012.3 0.0
14/05:00pm 33.7 29.8 5.3 17 15.2 E 15 24 8 13 1012.8 1012.1 0.0
14/04:30pm 33.8 29.2 5.4 17 15.3 ESE 19 28 10 15 1012.8 1012.1 0.0
14/04:00pm 33.3 28.4 5.0 17 15.1 SE 20 28 11 15 1012.8 1012.1 0.0
14/03:30pm 33.3 28.6 5.0 17 15.1 E 19 33 10 18 1013.0 1012.3 0.0
14/03:00pm 33.8 29.4 4.5 16 15.5 ESE 17 33 9 18 1013.0 1012.3 0.0
14/02:30pm 33.5 29.3 5.9 18 14.9 ESE 17 30 9 16 1013.7 1013.0 0.0
14/02:00pm 32.8 27.6 5.4 18 14.6 E 22 35 12 19 1014.1 1013.4 0.0
14/01:30pm 32.6 29.0 5.2 18 14.6 E 13 37 7 20 1014.5 1013.8 0.0
14/01:00pm 32.8 27.2 5.4 18 14.6 ESE 24 37 13 20 1015.3 1014.6 0.0
14/12:30pm 31.8 26.2 5.3 19 14.0 ESE 24 37 13 20 1015.9 1015.2 0.0
14/12:00pm 31.8 26.6 5.3 19 14.0 SE 22 32 12 17 1016.5 1015.8 0.0
14/11:30am 30.6 23.9 5.8 21 13.2 ESE 30 43 16 23 1017.3 1016.6 0.0
14/11:00am 30.5 23.5 4.3 19 13.6 ESE 30 43 16 23 1017.6 1016.9 0.0
14/10:30am 29.9 23.6 5.9 22 12.7 E 28 46 15 25 1018.0 1017.3 0.0
14/10:00am 28.7 23.4 8.4 28 11.2 ESE 26 37 14 20 1018.5 1017.8 0.0
14/09:30am 27.0 23.5 10.2 35 9.4 E 19 30 10 16 1018.9 1018.2 0.0
14/09:00am 26.4 23.2 11.3 39 8.6 E 19 24 10 13 1018.8 1018.1 0.0
14/08:30am 24.9 24.8 15.0 54 5.9 E 9 15 5 8 1018.8 1018.1 0.0
14/08:00am 23.2 26.2 19.2 78 2.6 NE 2 6 1 3 1018.7 1018.0 0.0
14/07:30am 18.7 20.8 16.3 86 1.4 CALM 0 0 0 0 1018.4 1017.7 0.0
14/07:00am 16.7 18.4 15.2 91 0.9 CALM 0 0 0 0 1018.1 1017.4 0.0
14/06:30am 16.3 17.6 14.0 86 1.3 CALM 0 0 0 0 1017.9 1017.2 0.0
14/06:00am 16.5 17.8 14.0 85 1.4 CALM 0 0 0 0 1017.6 1016.9 0.0
14/05:30am 17.4 18.2 14.7 84 1.6 NE 4 6 2 3 1017.1 1016.4 0.0
14/05:00am 18.1 19.1 14.2 78 2.2 NE 2 4 1 2 1016.9 1016.2 0.0
14/04:30am 18.6 19.4 14.7 78 2.3 NE 4 6 2 3 1016.7 1016.0 0.0
14/04:00am 18.3 18.6 14.6 79 2.2 NNE 6 6 3 3 1016.6 1015.9 0.0
14/03:30am 16.9 17.4 12.8 77 2.3 NNE 2 4 1 2 1016.3 1015.6 0.0
14/03:00am 17.5 18.6 13.6 78 2.2 CALM 0 0 0 0 1016.3 1015.6 0.0
14/02:30am 18.3 19.1 13.8 75 2.6 NNE 2 6 1 3 1016.3 1015.6 0.0
14/02:00am 19.2 19.6 13.6 70 3.2 NNE 4 6 2 3 1016.5 1015.8 0.0
14/01:30am 18.6 19.3 12.1 66 3.6 CALM 0 0 0 0 1016.5 1015.8 0.0
14/01:00am 20.7 21.0 14.4 67 3.7 NNE 6 9 3 5 1016.8 1016.1 0.0
14/12:30am 18.6 19.5 13.0 70 3.2 CALM 0 7 0 4 1016.6 1015.9 0.0
14/12:00am 19.5 20.4 12.8 65 3.8 CALM 0 0 0 0 1016.6 1015.9 0.0
 
Date/Time
CST
Temp
°C
App
Temp
°C
Dew
Point
°C
Rel
Hum
%
Delta-T
°C
Wind Press
QNH
hPa
Press
MSL
hPa
Rain since
9am
mm
Dir  Spd
km/h
Gust
km/h
Spd
kts
Gust
kts
13/11:30pm 21.8 21.8 13.7 60 4.7 WSW 6 9 3 5 1016.4 1015.7 0.0
13/11:00pm 20.8 20.9 12.8 60 4.6 WSW 4 6 2 3 1016.4 1015.7 0.0
13/10:30pm 22.0 22.2 13.1 57 5.1 WSW 4 6 2 3 1016.6 1015.9 0.0
13/10:00pm 22.5 22.6 12.7 54 5.6 WNW 4 6 2 3 1016.6 1015.9 0.0
13/09:30pm 23.5 23.0 11.9 48 6.6 NW 6 7 3 4 1016.4 1015.7 0.0
13/09:00pm 24.3 22.6 11.3 44 7.3 W 11 15 6 8 1016.0 1015.3 0.0
13/08:30pm 22.9 22.0 6.2 34 8.5 CALM 0 0 0 0 1015.5 1014.8 0.0
13/08:00pm 24.3 23.4 6.1 31 9.4 CALM 0 0 0 0 1015.0 1014.3 0.0
13/07:30pm 25.6 24.0 6.3 29 10.0 SSE 4 6 2 3 1014.7 1014.0 0.0
13/07:00pm 27.3 25.4 5.0 24 11.5 SE 4 6 2 3 1014.4 1013.7 0.0
13/06:30pm 30.5 27.9 4.3 19 13.6 ESE 7 13 4 7 1013.9 1013.2 0.0
13/06:00pm 32.1 29.1 4.0 17 14.6 SE 9 15 5 8 1013.6 1012.9 0.0
13/05:30pm 32.9 29.5 3.8 16 15.2 ESE 11 17 6 9 1013.6 1012.9 0.0
13/05:00pm 32.9 29.7 2.9 15 15.4 E 9 20 5 11 1013.5 1012.8 0.0
13/04:30pm 32.8 28.0 2.8 15 15.4 ESE 17 30 9 16 1013.5 1012.8 0.0
13/04:00pm 33.3 28.1 2.2 14 15.8 ESE 19 32 10 17 1013.7 1013.0 0.0
13/03:30pm 33.0 28.5 2.0 14 15.7 E 15 30 8 16 1013.8 1013.1 0.0
13/03:00pm 32.9 27.6 1.9 14 15.6 E 19 30 10 16 1014.2 1013.5 0.0
13/02:30pm 32.4 27.4 1.5 14 15.4 ENE 17 28 9 15 1014.6 1013.9 0.0
13/02:00pm 32.5 27.1 2.5 15 15.3 E 20 41 11 22 1015.1 1014.4 0.0
13/01:30pm 33.1 28.7 4.8 17 15.0 E 17 43 9 23 1015.6 1014.9 0.0
13/01:00pm 31.8 25.6 2.0 15 15.0 E 24 37 13 20 1016.2 1015.5 0.0
13/12:30pm 32.0 26.0 3.1 16 14.8 ESE 24 37 13 20 1016.7 1016.0 0.0
13/12:00pm 31.0 24.3 3.9 18 14.0 ESE 28 41 15 22 1017.2 1016.5 0.0
13/11:30am 29.9 22.8 3.8 19 13.3 SE 30 50 16 27 1017.9 1017.2 0.0
13/11:25am 30.4 23.4 4.2 19 13.5 SE 30 50 16 27 1017.7 1017.0 0.0
13/11:00am 30.4 23.8 4.2 19 13.5 ESE 28 39 15 21 1018.2 1017.5 0.0
13/10:30am 28.6 22.5 6.7 25 11.7 ESE 28 46 15 25 1018.6 1017.9 0.0
13/10:00am 27.4 23.3 8.8 31 10.2 ESE 20 33 11 18 1019.0 1018.3 0.0

Other formats

Comma delimited format used in spreadsheet applications
http://www.bom.gov.au/fwo/IDD60801/IDD60801.94125.axf

JavaScript Object Notation format (JSON) in row-major order
http://www.bom.gov.au/fwo/IDD60801/IDD60801.94125.json

Data quality

Most of these data are generated automatically and are frequently updated. Quality checks on data are not normally performed. It is possible for incorrect values to appear. Refer to information at About Latest Weather Observations and please check the disclaimer before using these data.